createdAt,value
2023-02-11T00:00:23.983Z,69.53
2023-02-11T00:06:54.930Z,69.32
2023-02-11T00:10:11.959Z,69.20
2023-02-11T00:13:13.932Z,68.62
2023-02-11T00:16:30.038Z,68.74
2023-02-11T00:19:45.004Z,69.31
2023-02-11T00:22:53.646Z,69.44
2023-02-11T00:26:11.981Z,69.56
2023-02-11T00:29:14.950Z,68.86
2023-02-11T00:32:30.181Z,68.40
2023-02-11T00:35:39.068Z,67.79
2023-02-11T00:38:49.196Z,67.20
2023-02-11T00:42:04.984Z,67.34
2023-02-11T00:45:16.326Z,67.52
2023-02-11T00:48:25.122Z,67.62
2023-02-11T00:51:40.009Z,67.85
2023-02-11T00:54:42.429Z,68.14
2023-02-11T00:57:57.931Z,67.91
2023-02-11T01:01:00.153Z,68.21
2023-02-11T01:04:15.018Z,67.57
2023-02-11T01:07:16.939Z,67.67
2023-02-11T01:10:32.008Z,67.99
2023-02-11T01:13:41.950Z,67.87
2023-02-11T01:16:57.017Z,67.73
2023-02-11T01:20:08.749Z,67.74
2023-02-11T01:23:23.992Z,67.67
2023-02-11T01:26:33.059Z,68.21
2023-02-11T01:29:48.010Z,68.44
2023-02-11T01:32:57.964Z,68.06
2023-02-11T01:36:08.254Z,67.55
2023-02-11T01:39:20.205Z,68.02
2023-02-11T01:42:37.998Z,68.36
2023-02-11T01:46:02.912Z,68.34
2023-02-11T01:49:16.002Z,67.79
2023-02-11T01:52:44.803Z,68.97
2023-02-11T01:55:55.514Z,69.07
2023-02-11T01:59:12.940Z,67.99
2023-02-11T02:02:28.948Z,68.20
2023-02-11T02:05:45.998Z,68.21
2023-02-11T02:09:07.949Z,68.21
2023-02-11T02:12:16.901Z,69.11
2023-02-11T02:15:29.468Z,69.65
2023-02-11T02:18:54.912Z,69.46
2023-02-11T02:22:36.994Z,70.35
2023-02-11T02:26:13.345Z,70.16
2023-02-11T02:29:38.984Z,69.83
2023-02-11T02:33:22.502Z,69.90
2023-02-11T02:36:42.565Z,70.42
2023-02-11T02:39:56.964Z,69.65
2023-02-11T02:43:07.817Z,70.19
2023-02-11T02:46:29.124Z,70.44
2023-02-11T02:49:43.921Z,70.68
2023-02-11T02:53:13.213Z,70.00
2023-02-11T02:56:44.060Z,69.79
2023-02-11T03:00:16.968Z,70.26
2023-02-11T03:03:41.256Z,70.10
2023-02-11T03:07:07.006Z,70.64
2023-02-11T03:10:22.990Z,70.90
2023-02-11T03:13:35.155Z,71.24
2023-02-11T03:16:51.973Z,71.81
2023-02-11T03:20:03.442Z,71.90
2023-02-11T03:23:25.975Z,71.86
2023-02-11T03:26:38.057Z,72.04
2023-02-11T03:30:07.947Z,70.91
2023-02-11T03:33:30.038Z,71.73
2023-02-11T03:36:45.349Z,72.08
2023-02-11T03:40:06.986Z,72.05
2023-02-11T03:43:20.938Z,71.80
2023-02-11T03:46:41.080Z,71.83
2023-02-11T03:49:52.972Z,73.67
2023-02-11T03:53:03.745Z,73.92
2023-02-11T03:56:16.063Z,72.37
2023-02-11T03:59:25.278Z,72.08
2023-02-11T04:02:38.983Z,72.15
2023-02-11T04:05:53.999Z,71.30
2023-02-11T04:08:56.007Z,71.23
2023-02-11T04:12:12.082Z,71.02
2023-02-11T04:15:14.217Z,71.87
2023-02-11T04:18:29.212Z,71.51
2023-02-11T04:21:37.324Z,71.86
2023-02-11T04:24:51.992Z,70.02
2023-02-11T04:28:07.040Z,69.95
2023-02-11T04:31:09.137Z,69.89
2023-02-11T04:34:24.978Z,70.03
2023-02-11T04:37:33.955Z,69.87
2023-02-11T04:40:49.002Z,69.76
2023-02-11T04:43:58.036Z,69.85
2023-02-11T04:47:06.786Z,69.12
2023-02-11T04:50:16.009Z,69.07
2023-02-11T04:53:31.005Z,68.67
2023-02-11T04:56:46.168Z,68.87
2023-02-11T04:59:55.599Z,68.94
2023-02-11T05:03:04.038Z,69.51
2023-02-11T05:06:20.160Z,68.82
2023-02-11T05:09:22.559Z,69.89
2023-02-11T05:12:36.980Z,69.94
2023-02-11T05:15:38.818Z,70.32
2023-02-11T05:18:54.170Z,69.58
2023-02-11T05:22:03.669Z,69.57
2023-02-11T05:25:19.046Z,70.01
2023-02-11T05:28:27.165Z,69.76
2023-02-11T05:31:42.052Z,70.05
2023-02-11T05:34:50.060Z,70.51
2023-02-11T05:37:58.718Z,70.25
2023-02-11T05:41:08.035Z,70.57
2023-02-11T05:44:23.044Z,71.09
2023-02-11T05:47:31.154Z,71.31
2023-02-11T05:50:46.054Z,71.70
2023-02-11T05:53:48.084Z,71.22
2023-02-11T05:57:03.096Z,71.35
2023-02-11T06:00:13.006Z,71.67
2023-02-11T06:03:28.270Z,72.33
2023-02-11T06:06:37.186Z,72.67
2023-02-11T06:09:52.009Z,73.31
2023-02-11T06:12:54.020Z,73.45
2023-02-11T06:16:10.243Z,73.35
2023-02-11T06:19:19.999Z,72.95
2023-02-11T06:22:42.053Z,73.28
2023-02-11T06:25:51.374Z,73.11
2023-02-11T06:29:00.652Z,72.78
2023-02-11T06:32:23.316Z,72.55
2023-02-11T06:35:39.486Z,72.86
2023-02-11T06:38:55.024Z,72.97
2023-02-11T06:41:57.108Z,72.29
2023-02-11T06:45:13.456Z,71.80
2023-02-11T06:48:22.057Z,70.87
2023-02-11T06:51:31.015Z,70.74
2023-02-11T06:54:40.082Z,71.06
2023-02-11T06:57:48.782Z,70.75
2023-02-11T07:00:57.083Z,71.03
2023-02-11T07:04:12.043Z,70.04
2023-02-11T07:07:14.006Z,69.96
2023-02-11T07:10:29.085Z,69.92
2023-02-11T07:13:37.044Z,70.16
2023-02-11T07:16:53.078Z,70.46
2023-02-11T07:20:02.036Z,70.64
2023-02-11T07:23:11.027Z,70.93
2023-02-11T07:26:30.115Z,70.16
2023-02-11T07:29:39.075Z,69.54
2023-02-11T07:32:56.084Z,68.79
2023-02-11T07:36:01.023Z,67.97
2023-02-11T07:39:16.303Z,68.25
2023-02-11T07:42:18.291Z,67.29
2023-02-11T07:45:33.083Z,67.30
2023-02-11T07:48:48.073Z,66.72
2023-02-11T07:51:49.979Z,66.16
2023-02-11T07:55:05.148Z,64.63
2023-02-11T07:58:20.132Z,64.44
2023-02-11T08:01:27.714Z,63.74
2023-02-11T08:04:43.183Z,61.90
2023-02-11T08:07:45.416Z,61.58
2023-02-11T08:11:01.064Z,60.83
2023-02-11T08:14:29.401Z,60.05
2023-02-11T08:17:45.094Z,59.41
2023-02-11T08:20:54.047Z,58.77
2023-02-11T08:24:09.063Z,58.65
2023-02-11T08:27:17.047Z,58.11
2023-02-11T08:30:27.768Z,57.49
2023-02-11T08:33:43.569Z,56.56
2023-02-11T08:37:09.289Z,55.18
2023-02-11T08:40:11.524Z,54.86
2023-02-11T08:43:26.153Z,54.20
2023-02-11T08:46:28.371Z,53.89
2023-02-11T08:49:43.075Z,54.29
2023-02-11T08:52:52.941Z,54.10
2023-02-11T08:56:08.117Z,53.17
2023-02-11T08:59:27.105Z,52.48
2023-02-11T09:02:29.230Z,52.32
2023-02-11T09:05:49.449Z,52.24
2023-02-11T09:08:54.321Z,52.19
2023-02-11T09:12:12.374Z,52.12
2023-02-11T09:15:14.301Z,51.67
2023-02-11T09:18:48.480Z,51.87
2023-02-11T09:22:01.841Z,51.93
2023-02-11T09:25:18.117Z,51.95
2023-02-11T09:28:26.134Z,51.99
2023-02-11T09:31:52.785Z,51.16
2023-02-11T09:35:10.095Z,51.38
2023-02-11T09:38:18.132Z,51.30
2023-02-11T09:41:51.012Z,50.60
2023-02-11T09:45:00.128Z,51.53
2023-02-11T09:48:21.085Z,50.51
2023-02-11T09:51:51.107Z,51.13
2023-02-11T09:55:11.098Z,50.74
2023-02-11T09:58:25.779Z,50.71
2023-02-11T10:02:05.127Z,50.81
2023-02-11T10:05:40.126Z,49.92
2023-02-11T10:09:14.189Z,49.83
2023-02-11T10:12:49.180Z,49.27
2023-02-11T10:16:23.490Z,49.05
2023-02-11T10:19:49.122Z,48.27
2023-02-11T10:23:01.824Z,48.44
2023-02-11T10:26:19.259Z,48.92
2023-02-11T10:29:41.373Z,48.50
2023-02-11T10:33:06.125Z,48.67
2023-02-11T10:36:24.203Z,48.66
2023-02-11T10:39:33.496Z,47.99
2023-02-11T10:42:43.142Z,47.70
2023-02-11T10:45:53.549Z,47.16
2023-02-11T10:49:08.165Z,48.01
2023-02-11T10:52:31.121Z,48.19
2023-02-11T10:55:33.086Z,48.17
2023-02-11T10:58:53.122Z,47.55
2023-02-11T11:02:06.166Z,46.23
2023-02-11T11:05:19.517Z,45.24
2023-02-11T11:08:28.183Z,44.25
2023-02-11T11:11:52.189Z,43.58
2023-02-11T11:15:20.213Z,44.02
2023-02-11T11:18:23.466Z,43.09
2023-02-11T11:21:47.601Z,41.77
2023-02-11T11:25:02.297Z,42.20
2023-02-11T11:28:23.474Z,42.51
2023-02-11T11:31:37.312Z,42.63
2023-02-11T11:34:58.154Z,42.21
2023-02-11T11:38:10.261Z,42.68
2023-02-11T11:41:36.497Z,43.26
2023-02-11T11:44:57.463Z,42.97
2023-02-11T11:48:30.192Z,41.83
2023-02-11T11:51:42.309Z,41.23
2023-02-11T11:54:57.153Z,39.36
2023-02-11T11:58:17.192Z,37.09
2023-02-11T12:01:45.173Z,38.35
2023-02-11T12:05:16.176Z,37.93
2023-02-11T12:08:36.770Z,34.40
2023-02-11T12:12:10.174Z,32.74
2023-02-11T12:15:30.407Z,33.79
2023-02-11T12:19:20.228Z,36.25
2023-02-11T12:22:43.309Z,37.92
2023-02-11T12:26:18.330Z,37.97
2023-02-11T12:29:46.206Z,37.24
2023-02-11T12:33:15.220Z,37.31
2023-02-11T12:37:10.305Z,36.67
2023-02-11T12:40:33.805Z,37.31
2023-02-11T12:43:45.209Z,35.69
2023-02-11T12:47:09.847Z,35.67
2023-02-11T12:50:36.610Z,36.25
2023-02-11T12:54:07.235Z,37.15
2023-02-11T12:57:23.105Z,37.04
2023-02-11T13:01:00.822Z,33.95
2023-02-11T13:04:29.861Z,33.35
2023-02-11T13:07:51.205Z,35.78
2023-02-11T13:11:13.915Z,36.00
2023-02-11T13:14:36.230Z,31.31
2023-02-11T13:18:08.171Z,28.61
2023-02-11T13:21:54.270Z,30.59
2023-02-11T13:25:32.551Z,32.29
2023-02-11T13:29:06.680Z,33.83
2023-02-11T13:32:22.193Z,34.44
2023-02-11T13:35:44.429Z,34.71
2023-02-11T13:39:04.398Z,34.47
2023-02-11T13:42:16.404Z,35.00
2023-02-11T13:45:36.455Z,36.43
2023-02-11T13:48:48.721Z,35.51
2023-02-11T13:52:05.373Z,36.60
2023-02-11T13:55:29.312Z,36.11
2023-02-11T13:58:48.521Z,36.62
2023-02-11T14:02:34.285Z,36.30
2023-02-11T14:06:15.398Z,36.38
2023-02-11T14:09:45.185Z,37.97
2023-02-11T14:13:27.271Z,37.39
2023-02-11T14:17:02.374Z,37.54
2023-02-11T14:20:37.311Z,38.04
2023-02-11T14:23:47.190Z,38.47
2023-02-11T14:27:14.217Z,37.61
2023-02-11T14:30:39.414Z,37.88
2023-02-11T14:34:15.257Z,38.33
2023-02-11T14:38:03.406Z,37.80
2023-02-11T14:41:22.916Z,38.87
2023-02-11T14:44:40.205Z,39.15
2023-02-11T14:47:48.918Z,39.28
2023-02-11T14:51:15.486Z,38.70
2023-02-11T14:54:29.359Z,38.88
2023-02-11T14:57:44.284Z,39.48
2023-02-11T15:01:04.344Z,39.27
2023-02-11T15:04:43.413Z,39.92
2023-02-11T15:07:55.017Z,39.52
2023-02-11T15:11:07.423Z,39.95
2023-02-11T15:14:28.424Z,40.40
2023-02-11T15:17:38.471Z,39.93
2023-02-11T15:21:00.248Z,40.62
2023-02-11T15:24:35.381Z,40.58
2023-02-11T15:27:49.597Z,40.58
2023-02-11T15:31:10.322Z,41.31
2023-02-11T15:34:30.286Z,41.21
2023-02-11T15:37:50.564Z,41.27
2023-02-11T15:41:07.543Z,41.26
2023-02-11T15:44:35.266Z,41.61
2023-02-11T15:47:51.502Z,41.90
2023-02-11T15:54:57.937Z,41.65
2023-02-11T15:58:10.310Z,41.65
2023-02-11T16:01:18.896Z,43.18
2023-02-11T16:04:28.085Z,43.12
2023-02-11T16:07:49.891Z,43.33
2023-02-11T16:11:05.569Z,43.84
2023-02-11T16:14:34.838Z,43.98
2023-02-11T16:17:44.741Z,44.15
2023-02-11T16:20:54.856Z,43.77
2023-02-11T16:24:10.854Z,44.33
2023-02-11T16:27:32.866Z,44.80
2023-02-11T16:30:42.958Z,44.55
2023-02-11T16:33:58.861Z,44.69
2023-02-11T16:37:10.825Z,44.74
2023-02-11T16:40:19.897Z,44.84
2023-02-11T16:43:28.114Z,44.96
2023-02-11T16:46:37.982Z,44.73
2023-02-11T16:49:48.857Z,44.78
2023-02-11T16:52:58.989Z,45.02
2023-02-11T16:56:23.004Z,45.25
2023-02-11T16:59:25.632Z,45.20
2023-02-11T17:02:43.901Z,45.96
2023-02-11T17:05:55.588Z,45.83
2023-02-11T17:09:04.803Z,45.65
2023-02-11T17:12:19.891Z,45.32
2023-02-11T17:15:28.431Z,45.76
2023-02-11T17:18:42.864Z,45.49
2023-02-11T17:21:52.789Z,46.00
2023-02-11T17:25:01.884Z,46.29
2023-02-11T17:28:16.981Z,46.56
2023-02-11T17:31:19.509Z,47.12
2023-02-11T17:34:34.847Z,46.96
2023-02-11T17:37:43.672Z,46.83
2023-02-11T17:40:51.880Z,46.96
2023-02-11T17:44:07.906Z,47.13
2023-02-11T17:47:16.829Z,46.85
2023-02-11T17:50:28.880Z,46.55
2023-02-11T17:53:44.185Z,46.83
2023-02-11T17:56:59.925Z,47.03
2023-02-11T18:00:15.913Z,47.64
2023-02-11T18:03:18.085Z,47.31
2023-02-11T18:06:33.940Z,47.37
2023-02-11T18:09:38.506Z,47.09
2023-02-11T18:12:53.889Z,47.63
2023-02-11T18:16:07.899Z,47.55
2023-02-11T18:19:17.421Z,47.04
2023-02-11T18:22:25.912Z,46.81
2023-02-11T18:25:34.933Z,46.90
2023-02-11T18:28:46.061Z,46.83
2023-02-11T18:31:55.980Z,47.12
2023-02-11T18:35:04.917Z,47.22
2023-02-11T18:38:13.875Z,47.54
2023-02-11T18:41:22.877Z,48.45
2023-02-11T18:44:37.937Z,48.96
2023-02-11T18:47:46.762Z,48.97
2023-02-11T18:51:02.893Z,49.28
2023-02-11T18:54:18.909Z,49.22
2023-02-11T18:57:28.537Z,49.99
2023-02-11T19:00:46.923Z,49.03
2023-02-11T19:03:49.354Z,49.57
2023-02-11T19:07:03.984Z,50.50
2023-02-11T19:10:07.033Z,49.49
2023-02-11T19:13:21.890Z,48.92
2023-02-11T19:16:30.006Z,48.45
2023-02-11T19:19:44.908Z,48.43
2023-02-11T19:22:59.979Z,48.26
2023-02-11T19:26:08.967Z,48.41
2023-02-11T19:29:24.938Z,49.09
2023-02-11T19:32:37.953Z,49.10
2023-02-11T19:35:53.317Z,49.22
2023-02-11T19:39:10.905Z,49.53
2023-02-11T19:42:14.594Z,49.64
2023-02-11T19:45:28.918Z,49.40
2023-02-11T19:48:44.911Z,49.95
2023-02-11T19:51:47.294Z,49.99
2023-02-11T19:55:08.942Z,50.39
2023-02-11T19:58:11.068Z,50.73
2023-02-11T20:01:27.998Z,51.17
2023-02-11T20:04:43.906Z,50.92
2023-02-11T20:07:45.749Z,50.88
2023-02-11T20:11:00.942Z,50.88
2023-02-11T20:14:04.025Z,50.17
2023-02-11T20:17:18.957Z,50.96
2023-02-11T20:20:21.189Z,51.27
2023-02-11T20:23:37.015Z,52.26
2023-02-11T20:26:39.039Z,53.02
2023-02-11T20:29:54.941Z,53.00
2023-02-11T20:32:57.500Z,53.23
2023-02-11T20:36:17.981Z,54.02
2023-02-11T20:39:28.967Z,54.48
2023-02-11T20:42:38.038Z,55.44
2023-02-11T20:45:47.081Z,55.68
2023-02-11T20:48:56.979Z,55.41
2023-02-11T20:52:06.004Z,55.61
2023-02-11T20:55:28.271Z,56.42
2023-02-11T20:58:32.070Z,57.34
2023-02-11T21:01:50.999Z,57.46
2023-02-11T21:04:53.077Z,58.51
2023-02-11T21:08:07.989Z,59.43
2023-02-11T21:11:10.133Z,59.96
2023-02-11T21:14:27.005Z,60.93
2023-02-11T21:17:29.218Z,61.64
2023-02-11T21:20:44.000Z,62.58
2023-02-11T21:24:02.971Z,62.45
2023-02-11T21:27:11.881Z,62.94
2023-02-11T21:30:27.963Z,62.98
2023-02-11T21:33:36.900Z,63.34
2023-02-11T21:36:46.071Z,63.18
2023-02-11T21:40:01.093Z,63.32
2023-02-11T21:43:09.932Z,63.46
2023-02-11T21:46:21.143Z,63.47
2023-02-11T21:49:30.100Z,62.94
2023-02-11T21:52:38.969Z,63.42
2023-02-11T21:56:10.049Z,63.86
2023-02-11T21:59:12.945Z,64.20
2023-02-11T22:02:27.986Z,64.48
2023-02-11T22:05:29.788Z,65.55
2023-02-11T22:08:45.981Z,65.82
2023-02-11T22:11:55.045Z,65.70
2023-02-11T22:15:11.018Z,65.97
2023-02-11T22:18:13.236Z,66.46
2023-02-11T22:21:29.007Z,67.11
2023-02-11T22:24:37.015Z,67.82
2023-02-11T22:27:53.010Z,68.35
2023-02-11T22:31:01.707Z,68.21
2023-02-11T22:34:17.003Z,68.46
2023-02-11T22:37:18.853Z,69.26
2023-02-11T22:40:34.007Z,70.47
2023-02-11T22:43:36.921Z,70.62
2023-02-11T22:46:52.011Z,71.01
2023-02-11T22:49:53.933Z,70.95
2023-02-11T22:53:08.982Z,71.00
2023-02-11T22:56:17.761Z,71.43
2023-02-11T22:59:36.034Z,71.34
2023-02-11T23:02:51.114Z,71.17
2023-02-11T23:05:53.171Z,71.17
2023-02-11T23:09:14.020Z,71.54
2023-02-11T23:12:22.994Z,71.34
2023-02-11T23:15:31.959Z,71.73
2023-02-11T23:18:42.003Z,71.95
2023-02-11T23:21:51.616Z,72.27
2023-02-11T23:25:00.014Z,72.31
2023-02-11T23:28:15.048Z,73.01
2023-02-11T23:31:20.242Z,73.17
2023-02-11T23:34:35.050Z,73.51
2023-02-11T23:37:36.883Z,74.37
2023-02-11T23:40:53.050Z,74.56
2023-02-11T23:44:02.131Z,74.39
2023-02-11T23:47:17.041Z,74.06
2023-02-11T23:50:32.065Z,74.19
2023-02-11T23:53:33.984Z,74.51
2023-02-11T23:56:56.046Z,74.68
